sensor_id;sensor_type;location;lat;lon;timestamp;temperature;humidity
3300;DHT22;1662;49.310;8.134;2022-09-16T00:02:15;16.20;99.90
3300;DHT22;1662;49.310;8.134;2022-09-16T00:04:41;16.10;99.90
3300;DHT22;1662;49.310;8.134;2022-09-16T00:07:07;16.10;99.90
3300;DHT22;1662;49.310;8.134;2022-09-16T00:09:35;16.10;99.90
3300;DHT22;1662;49.310;8.134;2022-09-16T00:12:04;16.00;99.90
3300;DHT22;1662;49.310;8.134;2022-09-16T00:14:29;16.00;99.90
3300;DHT22;1662;49.310;8.134;2022-09-16T00:16:55;16.00;99.90
3300;DHT22;1662;49.310;8.134;2022-09-16T00:19:21;16.00;99.90
3300;DHT22;1662;49.310;8.134;2022-09-16T00:21:47;16.00;99.90
3300;DHT22;1662;49.310;8.134;2022-09-16T00:24:14;16.00;99.90
3300;DHT22;1662;49.310;8.134;2022-09-16T00:26:41;16.00;99.90
3300;DHT22;1662;49.310;8.134;2022-09-16T00:29:09;16.00;99.90
3300;DHT22;1662;49.310;8.134;2022-09-16T00:31:35;16.00;99.90
3300;DHT22;1662;49.310;8.134;2022-09-16T00:34:01;16.00;99.90
3300;DHT22;1662;49.310;8.134;2022-09-16T00:36:27;16.00;99.90
3300;DHT22;1662;49.310;8.134;2022-09-16T00:38:53;16.00;99.90
3300;DHT22;1662;49.310;8.134;2022-09-16T00:41:27;16.00;99.90
3300;DHT22;1662;49.310;8.134;2022-09-16T00:44:02;15.90;99.90
3300;DHT22;1662;49.310;8.134;2022-09-16T00:46:43;16.00;99.90
3300;DHT22;1662;49.310;8.134;2022-09-16T00:49:16;15.90;99.90
3300;DHT22;1662;49.310;8.134;2022-09-16T00:51:44;15.90;99.90
3300;DHT22;1662;49.310;8.134;2022-09-16T00:54:15;15.80;99.90
3300;DHT22;1662;49.310;8.134;2022-09-16T00:56:46;15.70;99.90
3300;DHT22;1662;49.310;8.134;2022-09-16T00:59:42;15.70;99.90
3300;DHT22;1662;49.310;8.134;2022-09-16T01:02:13;15.60;99.90
3300;DHT22;1662;49.310;8.134;2022-09-16T01:04:55;15.50;99.90
3300;DHT22;1662;49.310;8.134;2022-09-16T01:07:47;15.40;99.90
3300;DHT22;1662;49.310;8.134;2022-09-16T01:10:15;15.40;99.90
3300;DHT22;1662;49.310;8.134;2022-09-16T01:12:45;15.40;99.90
3300;DHT22;1662;49.310;8.134;2022-09-16T01:15:13;15.40;99.90
3300;DHT22;1662;49.310;8.134;2022-09-16T01:23:40;15.40;99.90
3300;DHT22;1662;49.310;8.134;2022-09-16T01:43:30;15.20;99.90
3300;DHT22;1662;49.310;8.134;2022-09-16T01:46:02;15.20;99.90
3300;DHT22;1662;49.310;8.134;2022-09-16T01:51:53;15.20;99.90
3300;DHT22;1662;49.310;8.134;2022-09-16T01:54:29;15.20;99.90
3300;DHT22;1662;49.310;8.134;2022-09-16T02:00:07;15.20;99.90
3300;DHT22;1662;49.310;8.134;2022-09-16T02:02:45;15.20;99.90
3300;DHT22;1662;49.310;8.134;2022-09-16T02:05:20;15.20;99.90
3300;DHT22;1662;49.310;8.134;2022-09-16T02:07:54;15.30;99.90
3300;DHT22;1662;49.310;8.134;2022-09-16T02:10:49;15.30;99.90
3300;DHT22;1662;49.310;8.134;2022-09-16T02:13:38;15.30;99.90
3300;DHT22;1662;49.310;8.134;2022-09-16T02:16:10;15.30;99.90
3300;DHT22;1662;49.310;8.134;2022-09-16T02:18:40;15.30;99.90
3300;DHT22;1662;49.310;8.134;2022-09-16T02:21:11;15.40;99.90
3300;DHT22;1662;49.310;8.134;2022-09-16T02:23:44;15.40;99.90
3300;DHT22;1662;49.310;8.134;2022-09-16T02:26:12;15.40;99.90
3300;DHT22;1662;49.310;8.134;2022-09-16T02:28:41;15.40;99.90
3300;DHT22;1662;49.310;8.134;2022-09-16T02:31:09;15.30;99.90
3300;DHT22;1662;49.310;8.134;2022-09-16T02:33:53;15.30;99.90
3300;DHT22;1662;49.310;8.134;2022-09-16T02:36:22;15.40;99.90
3300;DHT22;1662;49.310;8.134;2022-09-16T02:38:54;15.30;99.90
3300;DHT22;1662;49.310;8.134;2022-09-16T02:41:24;15.30;99.90
3300;DHT22;1662;49.310;8.134;2022-09-16T02:43:50;15.30;99.90
3300;DHT22;1662;49.310;8.134;2022-09-16T02:57:40;15.40;99.90
3300;DHT22;1662;49.310;8.134;2022-09-16T03:00:06;15.40;99.90
3300;DHT22;1662;49.310;8.134;2022-09-16T03:02:33;15.40;99.90
3300;DHT22;1662;49.310;8.134;2022-09-16T03:04:59;15.40;99.90
3300;DHT22;1662;49.310;8.134;2022-09-16T03:07:28;15.40;99.90
3300;DHT22;1662;49.310;8.134;2022-09-16T03:09:58;15.40;99.90
3300;DHT22;1662;49.310;8.134;2022-09-16T03:26:45;15.30;99.90
3300;DHT22;1662;49.310;8.134;2022-09-16T03:29:54;15.30;99.90
3300;DHT22;1662;49.310;8.134;2022-09-16T03:32:24;15.30;99.90
3300;DHT22;1662;49.310;8.134;2022-09-16T03:34:59;15.20;99.90
3300;DHT22;1662;49.310;8.134;2022-09-16T03:37:28;15.30;99.90
3300;DHT22;1662;49.310;8.134;2022-09-16T03:39:59;15.20;99.90
3300;DHT22;1662;49.310;8.134;2022-09-16T03:42:27;15.30;99.90
3300;DHT22;1662;49.310;8.134;2022-09-16T03:44:55;15.30;99.90
3300;DHT22;1662;49.310;8.134;2022-09-16T03:47:21;15.20;99.90
3300;DHT22;1662;49.310;8.134;2022-09-16T03:49:47;15.20;99.90
3300;DHT22;1662;49.310;8.134;2022-09-16T03:52:15;15.20;99.90
3300;DHT22;1662;49.310;8.134;2022-09-16T03:54:45;15.20;99.90
3300;DHT22;1662;49.310;8.134;2022-09-16T03:57:11;15.20;99.90
3300;DHT22;1662;49.310;8.134;2022-09-16T03:59:37;15.20;99.90
3300;DHT22;1662;49.310;8.134;2022-09-16T04:02:02;15.20;99.90
3300;DHT22;1662;49.310;8.134;2022-09-16T04:04:28;15.20;99.90
3300;DHT22;1662;49.310;8.134;2022-09-16T04:06:56;15.20;99.90
3300;DHT22;1662;49.310;8.134;2022-09-16T04:09:22;15.20;99.90
3300;DHT22;1662;49.310;8.134;2022-09-16T04:11:47;15.30;99.90
3300;DHT22;1662;49.310;8.134;2022-09-16T04:14:17;15.30;99.90
3300;DHT22;1662;49.310;8.134;2022-09-16T04:16:43;15.30;99.90
3300;DHT22;1662;49.310;8.134;2022-09-16T04:19:11;15.30;99.90
3300;DHT22;1662;49.310;8.134;2022-09-16T04:21:38;15.30;99.90
3300;DHT22;1662;49.310;8.134;2022-09-16T04:24:04;15.30;99.90
3300;DHT22;1662;49.310;8.134;2022-09-16T04:26:29;15.30;99.90
3300;DHT22;1662;49.310;8.134;2022-09-16T04:28:55;15.30;99.90
3300;DHT22;1662;49.310;8.134;2022-09-16T04:31:21;15.30;99.90
3300;DHT22;1662;49.310;8.134;2022-09-16T04:33:46;15.30;99.90
3300;DHT22;1662;49.310;8.134;2022-09-16T04:36:17;15.30;99.90
3300;DHT22;1662;49.310;8.134;2022-09-16T04:38:45;15.30;99.90
3300;DHT22;1662;49.310;8.134;2022-09-16T04:41:15;15.20;99.90
3300;DHT22;1662;49.310;8.134;2022-09-16T04:43:49;15.30;99.90
3300;DHT22;1662;49.310;8.134;2022-09-16T04:46:14;15.30;99.90
3300;DHT22;1662;49.310;8.134;2022-09-16T04:48:40;15.20;99.90
3300;DHT22;1662;49.310;8.134;2022-09-16T04:51:08;15.20;99.90
3300;DHT22;1662;49.310;8.134;2022-09-16T04:53:35;15.20;99.90
3300;DHT22;1662;49.310;8.134;2022-09-16T04:56:12;15.20;99.90
3300;DHT22;1662;49.310;8.134;2022-09-16T04:58:41;15.20;99.90
3300;DHT22;1662;49.310;8.134;2022-09-16T05:01:10;15.20;99.90
3300;DHT22;1662;49.310;8.134;2022-09-16T05:03:38;15.10;99.90
3300;DHT22;1662;49.310;8.134;2022-09-16T05:06:09;15.10;99.90
3300;DHT22;1662;49.310;8.134;2022-09-16T05:08:35;15.10;99.90
3300;DHT22;1662;49.310;8.134;2022-09-16T05:11:21;15.00;99.90
3300;DHT22;1662;49.310;8.134;2022-09-16T05:13:47;15.00;99.90
3300;DHT22;1662;49.310;8.134;2022-09-16T05:16:15;15.00;99.90
3300;DHT22;1662;49.310;8.134;2022-09-16T05:18:42;15.10;99.90
3300;DHT22;1662;49.310;8.134;2022-09-16T05:21:10;15.10;99.90
3300;DHT22;1662;49.310;8.134;2022-09-16T05:23:36;15.10;99.90
3300;DHT22;1662;49.310;8.134;2022-09-16T05:26:07;15.10;99.90
3300;DHT22;1662;49.310;8.134;2022-09-16T05:28:33;15.10;99.90
3300;DHT22;1662;49.310;8.134;2022-09-16T05:31:22;15.10;99.90
3300;DHT22;1662;49.310;8.134;2022-09-16T05:33:58;15.10;99.90
3300;DHT22;1662;49.310;8.134;2022-09-16T05:36:25;15.10;99.90
3300;DHT22;1662;49.310;8.134;2022-09-16T05:38:51;15.10;99.90
3300;DHT22;1662;49.310;8.134;2022-09-16T05:41:17;15.10;99.90
3300;DHT22;1662;49.310;8.134;2022-09-16T05:43:42;15.10;99.90
3300;DHT22;1662;49.310;8.134;2022-09-16T05:46:12;15.10;99.90
3300;DHT22;1662;49.310;8.134;2022-09-16T05:48:41;15.10;99.90
3300;DHT22;1662;49.310;8.134;2022-09-16T05:51:07;15.10;99.90
3300;DHT22;1662;49.310;8.134;2022-09-16T05:53:34;15.10;99.90
3300;DHT22;1662;49.310;8.134;2022-09-16T05:56:01;15.00;99.90
3300;DHT22;1662;49.310;8.134;2022-09-16T05:58:28;15.00;99.90
3300;DHT22;1662;49.310;8.134;2022-09-16T06:01:02;15.10;99.90
3300;DHT22;1662;49.310;8.134;2022-09-16T06:03:31;15.10;99.90
3300;DHT22;1662;49.310;8.134;2022-09-16T06:08:30;15.10;99.90
3300;DHT22;1662;49.310;8.134;2022-09-16T06:10:59;15.10;99.90
3300;DHT22;1662;49.310;8.134;2022-09-16T06:13:25;15.10;99.90
3300;DHT22;1662;49.310;8.134;2022-09-16T06:15:52;15.10;99.90
3300;DHT22;1662;49.310;8.134;2022-09-16T06:18:22;15.20;99.90
3300;DHT22;1662;49.310;8.134;2022-09-16T06:20:48;15.20;99.90
3300;DHT22;1662;49.310;8.134;2022-09-16T06:23:14;15.20;99.90
3300;DHT22;1662;49.310;8.134;2022-09-16T06:25:40;15.20;99.90
3300;DHT22;1662;49.310;8.134;2022-09-16T06:28:05;15.20;99.90
3300;DHT22;1662;49.310;8.134;2022-09-16T06:30:31;15.30;99.90
3300;DHT22;1662;49.310;8.134;2022-09-16T06:32:57;15.30;99.90
3300;DHT22;1662;49.310;8.134;2022-09-16T06:35:25;15.30;99.90
3300;DHT22;1662;49.310;8.134;2022-09-16T06:37:50;15.30;99.90
3300;DHT22;1662;49.310;8.134;2022-09-16T06:40:16;15.30;99.90
3300;DHT22;1662;49.310;8.134;2022-09-16T06:42:41;15.30;99.90
3300;DHT22;1662;49.310;8.134;2022-09-16T06:45:07;15.30;99.90
3300;DHT22;1662;49.310;8.134;2022-09-16T06:47:36;15.20;99.90
3300;DHT22;1662;49.310;8.134;2022-09-16T06:50:02;15.20;99.90
3300;DHT22;1662;49.310;8.134;2022-09-16T06:52:29;15.20;99.90
3300;DHT22;1662;49.310;8.134;2022-09-16T06:54:59;15.30;99.90
3300;DHT22;1662;49.310;8.134;2022-09-16T06:57:27;15.30;99.90
3300;DHT22;1662;49.310;8.134;2022-09-16T06:59:53;15.30;99.90
3300;DHT22;1662;49.310;8.134;2022-09-16T07:02:18;15.30;99.90
3300;DHT22;1662;49.310;8.134;2022-09-16T07:04:45;15.30;99.90
3300;DHT22;1662;49.310;8.134;2022-09-16T07:07:11;15.30;99.90
3300;DHT22;1662;49.310;8.134;2022-09-16T07:09:38;15.30;99.90
3300;DHT22;1662;49.310;8.134;2022-09-16T07:12:06;15.30;99.90
3300;DHT22;1662;49.310;8.134;2022-09-16T07:14:32;15.30;99.90
3300;DHT22;1662;49.310;8.134;2022-09-16T07:16:58;15.30;99.90
3300;DHT22;1662;49.310;8.134;2022-09-16T07:19:25;15.30;99.90
3300;DHT22;1662;49.310;8.134;2022-09-16T07:21:53;15.30;99.90
3300;DHT22;1662;49.310;8.134;2022-09-16T07:24:19;15.40;99.90
3300;DHT22;1662;49.310;8.134;2022-09-16T07:26:46;15.40;99.90
3300;DHT22;1662;49.310;8.134;2022-09-16T07:29:14;15.40;99.90
3300;DHT22;1662;49.310;8.134;2022-09-16T07:31:40;15.40;99.90
3300;DHT22;1662;49.310;8.134;2022-09-16T07:34:08;15.40;99.90
3300;DHT22;1662;49.310;8.134;2022-09-16T07:36:44;15.40;99.90
3300;DHT22;1662;49.310;8.134;2022-09-16T07:39:11;15.40;99.90
3300;DHT22;1662;49.310;8.134;2022-09-16T07:41:42;15.40;99.90
3300;DHT22;1662;49.310;8.134;2022-09-16T07:44:15;15.40;99.90
3300;DHT22;1662;49.310;8.134;2022-09-16T07:46:41;15.40;99.90
3300;DHT22;1662;49.310;8.134;2022-09-16T07:49:09;15.40;99.90
3300;DHT22;1662;49.310;8.134;2022-09-16T07:51:35;15.40;99.90
3300;DHT22;1662;49.310;8.134;2022-09-16T07:54:06;15.40;99.90
3300;DHT22;1662;49.310;8.134;2022-09-16T07:56:35;15.40;99.90
3300;DHT22;1662;49.310;8.134;2022-09-16T07:59:03;15.40;99.90
3300;DHT22;1662;49.310;8.134;2022-09-16T08:01:29;15.40;99.90
3300;DHT22;1662;49.310;8.134;2022-09-16T08:03:55;15.40;99.90
3300;DHT22;1662;49.310;8.134;2022-09-16T08:06:25;15.40;99.90
3300;DHT22;1662;49.310;8.134;2022-09-16T08:08:53;15.40;99.90
3300;DHT22;1662;49.310;8.134;2022-09-16T08:11:19;15.40;99.90
3300;DHT22;1662;49.310;8.134;2022-09-16T08:13:45;15.40;99.90
3300;DHT22;1662;49.310;8.134;2022-09-16T08:16:15;15.40;99.90
3300;DHT22;1662;49.310;8.134;2022-09-16T08:18:41;15.40;99.90
3300;DHT22;1662;49.310;8.134;2022-09-16T08:21:26;15.40;99.90
3300;DHT22;1662;49.310;8.134;2022-09-16T08:23:53;15.40;99.90
3300;DHT22;1662;49.310;8.134;2022-09-16T08:26:21;15.50;99.90
3300;DHT22;1662;49.310;8.134;2022-09-16T08:28:48;15.50;99.90
3300;DHT22;1662;49.310;8.134;2022-09-16T08:31:15;15.50;99.90
3300;DHT22;1662;49.310;8.134;2022-09-16T08:33:41;15.50;99.90
3300;DHT22;1662;49.310;8.134;2022-09-16T08:38:39;15.50;99.90
3300;DHT22;1662;49.310;8.134;2022-09-16T08:41:22;15.50;99.90
3300;DHT22;1662;49.310;8.134;2022-09-16T08:51:51;15.70;99.90
3300;DHT22;1662;49.310;8.134;2022-09-16T08:54:36;15.80;99.90
3300;DHT22;1662;49.310;8.134;2022-09-16T08:57:32;15.80;99.90
3300;DHT22;1662;49.310;8.134;2022-09-16T09:00:09;15.90;99.90
3300;DHT22;1662;49.310;8.134;2022-09-16T09:02:56;16.00;99.90
3300;DHT22;1662;49.310;8.134;2022-09-16T09:05:28;16.10;99.90
3300;DHT22;1662;49.310;8.134;2022-09-16T09:08:04;16.10;99.90
3300;DHT22;1662;49.310;8.134;2022-09-16T09:10:51;16.20;99.90
3300;DHT22;1662;49.310;8.134;2022-09-16T09:22:03;16.60;99.90
3300;DHT22;1662;49.310;8.134;2022-09-16T09:27:23;16.90;99.90
3300;DHT22;1662;49.310;8.134;2022-09-16T09:30:12;16.90;99.90
3300;DHT22;1662;49.310;8.134;2022-09-16T09:38:39;16.90;99.90
3300;DHT22;1662;49.310;8.134;2022-09-16T09:41:15;17.00;99.90
3300;DHT22;1662;49.310;8.134;2022-09-16T09:43:54;16.80;99.90
3300;DHT22;1662;49.310;8.134;2022-09-16T09:46:28;16.80;99.90
3300;DHT22;1662;49.310;8.134;2022-09-16T09:52:28;16.70;99.90
3300;DHT22;1662;49.310;8.134;2022-09-16T09:55:03;16.70;99.90
3300;DHT22;1662;49.310;8.134;2022-09-16T09:57:43;16.70;99.90
3300;DHT22;1662;49.310;8.134;2022-09-16T10:00:16;17.10;99.90
3300;DHT22;1662;49.310;8.134;2022-09-16T10:02:44;17.40;99.90
3300;DHT22;1662;49.310;8.134;2022-09-16T10:05:24;17.60;99.90
3300;DHT22;1662;49.310;8.134;2022-09-16T10:07:52;17.80;99.90
3300;DHT22;1662;49.310;8.134;2022-09-16T10:10:22;18.10;99.90
3300;DHT22;1662;49.310;8.134;2022-09-16T10:12:49;18.30;99.90
3300;DHT22;1662;49.310;8.134;2022-09-16T10:15:31;18.40;99.90
3300;DHT22;1662;49.310;8.134;2022-09-16T10:18:01;18.50;99.90
3300;DHT22;1662;49.310;8.134;2022-09-16T10:20:38;18.60;99.90
3300;DHT22;1662;49.310;8.134;2022-09-16T10:23:12;18.70;99.90
3300;DHT22;1662;49.310;8.134;2022-09-16T10:25:39;18.70;99.90
3300;DHT22;1662;49.310;8.134;2022-09-16T10:28:25;18.70;99.90
3300;DHT22;1662;49.310;8.134;2022-09-16T10:30:55;18.50;99.90
3300;DHT22;1662;49.310;8.134;2022-09-16T10:36:00;18.40;99.90
3300;DHT22;1662;49.310;8.134;2022-09-16T10:38:47;18.50;99.90
3300;DHT22;1662;49.310;8.134;2022-09-16T10:41:24;18.30;99.90
3300;DHT22;1662;49.310;8.134;2022-09-16T10:44:01;18.30;99.90
3300;DHT22;1662;49.310;8.134;2022-09-16T10:46:28;18.30;99.90
3300;DHT22;1662;49.310;8.134;2022-09-16T10:48:59;18.50;99.90
3300;DHT22;1662;49.310;8.134;2022-09-16T10:51:28;18.70;99.90
3300;DHT22;1662;49.310;8.134;2022-09-16T10:53:59;18.80;99.90
3300;DHT22;1662;49.310;8.134;2022-09-16T10:56:48;18.70;99.90
3300;DHT22;1662;49.310;8.134;2022-09-16T10:59:15;18.50;99.90
3300;DHT22;1662;49.310;8.134;2022-09-16T11:02:07;18.40;99.90
3300;DHT22;1662;49.310;8.134;2022-09-16T11:10:27;18.10;99.90
3300;DHT22;1662;49.310;8.134;2022-09-16T11:18:45;18.70;99.90
3300;DHT22;1662;49.310;8.134;2022-09-16T11:26:33;18.60;99.90
3300;DHT22;1662;49.310;8.134;2022-09-16T11:45:21;19.10;99.90
3300;DHT22;1662;49.310;8.134;2022-09-16T11:58:59;19.50;99.90
3300;DHT22;1662;49.310;8.134;2022-09-16T12:01:44;19.20;99.90
3300;DHT22;1662;49.310;8.134;2022-09-16T12:04:22;19.10;99.90
3300;DHT22;1662;49.310;8.134;2022-09-16T12:12:12;18.70;99.90
3300;DHT22;1662;49.310;8.134;2022-09-16T12:14:42;18.70;99.90
3300;DHT22;1662;49.310;8.134;2022-09-16T12:17:17;18.80;99.90
3300;DHT22;1662;49.310;8.134;2022-09-16T12:20:05;18.80;99.90
3300;DHT22;1662;49.310;8.134;2022-09-16T12:22:38;18.70;99.90
3300;DHT22;1662;49.310;8.134;2022-09-16T12:25:20;18.50;99.90
3300;DHT22;1662;49.310;8.134;2022-09-16T12:30:22;18.40;99.90
3300;DHT22;1662;49.310;8.134;2022-09-16T12:33:11;18.40;99.90
3300;DHT22;1662;49.310;8.134;2022-09-16T12:38:18;18.40;99.90
3300;DHT22;1662;49.310;8.134;2022-09-16T12:43:59;18.70;99.90
3300;DHT22;1662;49.310;8.134;2022-09-16T12:49:37;19.10;99.90
3300;DHT22;1662;49.310;8.134;2022-09-16T13:03:32;19.80;99.90
3300;DHT22;1662;49.310;8.134;2022-09-16T13:06:04;19.90;99.90
3300;DHT22;1662;49.310;8.134;2022-09-16T13:08:32;20.10;99.90
3300;DHT22;1662;49.310;8.134;2022-09-16T13:11:01;20.50;99.90
3300;DHT22;1662;49.310;8.134;2022-09-16T13:13:40;20.90;99.90
3300;DHT22;1662;49.310;8.134;2022-09-16T13:16:08;21.10;99.90
3300;DHT22;1662;49.310;8.134;2022-09-16T13:19:25;21.20;99.90
3300;DHT22;1662;49.310;8.134;2022-09-16T13:21:42;21.10;99.90
3300;DHT22;1662;49.310;8.134;2022-09-16T13:26:41;21.50;99.90
3300;DHT22;1662;49.310;8.134;2022-09-16T13:29:42;21.50;99.90
3300;DHT22;1662;49.310;8.134;2022-09-16T13:32:55;21.60;99.90
3300;DHT22;1662;49.310;8.134;2022-09-16T13:37:57;21.80;99.90
3300;DHT22;1662;49.310;8.134;2022-09-16T13:40:24;21.80;99.90
3300;DHT22;1662;49.310;8.134;2022-09-16T13:43:02;22.00;99.90
3300;DHT22;1662;49.310;8.134;2022-09-16T13:45:30;22.20;99.90
3300;DHT22;1662;49.310;8.134;2022-09-16T13:48:08;22.20;99.90
3300;DHT22;1662;49.310;8.134;2022-09-16T13:50:41;22.40;99.90
3300;DHT22;1662;49.310;8.134;2022-09-16T13:53:09;22.30;99.90
3300;DHT22;1662;49.310;8.134;2022-09-16T13:55:40;22.00;99.90
3300;DHT22;1662;49.310;8.134;2022-09-16T13:58:26;21.70;99.90
3300;DHT22;1662;49.310;8.134;2022-09-16T14:04:11;21.50;99.90
3300;DHT22;1662;49.310;8.134;2022-09-16T14:07:09;21.80;99.90
3300;DHT22;1662;49.310;8.134;2022-09-16T14:12:31;21.90;99.90
3300;DHT22;1662;49.310;8.134;2022-09-16T14:15:00;21.50;99.90
3300;DHT22;1662;49.310;8.134;2022-09-16T14:17:39;21.40;99.90
3300;DHT22;1662;49.310;8.134;2022-09-16T14:20:12;21.30;99.90
3300;DHT22;1662;49.310;8.134;2022-09-16T14:22:41;21.10;99.90
3300;DHT22;1662;49.310;8.134;2022-09-16T14:27:50;20.50;99.90
3300;DHT22;1662;49.310;8.134;2022-09-16T14:30:17;20.30;99.90
3300;DHT22;1662;49.310;8.134;2022-09-16T14:32:44;20.30;99.90
3300;DHT22;1662;49.310;8.134;2022-09-16T14:35:24;20.10;99.90
3300;DHT22;1662;49.310;8.134;2022-09-16T14:37:55;19.90;99.90
3300;DHT22;1662;49.310;8.134;2022-09-16T14:40:23;19.70;99.90
3300;DHT22;1662;49.310;8.134;2022-09-16T14:43:03;19.70;99.90
3300;DHT22;1662;49.310;8.134;2022-09-16T14:45:30;19.70;99.90
3300;DHT22;1662;49.310;8.134;2022-09-16T14:47:59;19.70;99.90
3300;DHT22;1662;49.310;8.134;2022-09-16T14:50:36;19.60;99.90
3300;DHT22;1662;49.310;8.134;2022-09-16T14:53:05;19.50;99.90
3300;DHT22;1662;49.310;8.134;2022-09-16T14:55:34;19.60;99.90
3300;DHT22;1662;49.310;8.134;2022-09-16T14:58:04;19.40;99.90
3300;DHT22;1662;49.310;8.134;2022-09-16T15:00:42;19.60;99.90
3300;DHT22;1662;49.310;8.134;2022-09-16T15:03:16;19.30;99.90
3300;DHT22;1662;49.310;8.134;2022-09-16T15:05:47;19.40;99.90
3300;DHT22;1662;49.310;8.134;2022-09-16T15:08:28;19.10;99.90
3300;DHT22;1662;49.310;8.134;2022-09-16T15:10:57;18.70;99.90
3300;DHT22;1662;49.310;8.134;2022-09-16T15:13:29;18.60;99.90
3300;DHT22;1662;49.310;8.134;2022-09-16T15:18:36;18.50;99.90
3300;DHT22;1662;49.310;8.134;2022-09-16T15:21:15;18.40;99.90
3300;DHT22;1662;49.310;8.134;2022-09-16T15:23:46;18.30;99.90
3300;DHT22;1662;49.310;8.134;2022-09-16T15:26:16;18.30;99.90
3300;DHT22;1662;49.310;8.134;2022-09-16T15:29:02;18.20;99.90
3300;DHT22;1662;49.310;8.134;2022-09-16T15:34:03;18.30;99.90
3300;DHT22;1662;49.310;8.134;2022-09-16T15:36:38;18.10;99.90
3300;DHT22;1662;49.310;8.134;2022-09-16T15:39:20;17.90;99.90
3300;DHT22;1662;49.310;8.134;2022-09-16T15:42:00;17.80;99.90
3300;DHT22;1662;49.310;8.134;2022-09-16T15:44:26;17.80;99.90
3300;DHT22;1662;49.310;8.134;2022-09-16T15:46:52;17.80;99.90
3300;DHT22;1662;49.310;8.134;2022-09-16T15:49:18;17.80;99.90
3300;DHT22;1662;49.310;8.134;2022-09-16T15:51:49;17.90;99.90
3300;DHT22;1662;49.310;8.134;2022-09-16T15:54:30;18.00;99.90
3300;DHT22;1662;49.310;8.134;2022-09-16T15:57:07;18.30;99.90
3300;DHT22;1662;49.310;8.134;2022-09-16T15:59:42;18.70;99.90
3300;DHT22;1662;49.310;8.134;2022-09-16T16:05:18;19.20;99.90
3300;DHT22;1662;49.310;8.134;2022-09-16T16:07:55;19.40;99.90
3300;DHT22;1662;49.310;8.134;2022-09-16T16:10:32;19.60;99.90
3300;DHT22;1662;49.310;8.134;2022-09-16T16:13:00;19.70;99.90
3300;DHT22;1662;49.310;8.134;2022-09-16T16:15:36;19.60;99.90
3300;DHT22;1662;49.310;8.134;2022-09-16T16:18:05;19.70;99.90
3300;DHT22;1662;49.310;8.134;2022-09-16T16:20:32;19.70;99.90
3300;DHT22;1662;49.310;8.134;2022-09-16T16:22:59;19.70;99.90
3300;DHT22;1662;49.310;8.134;2022-09-16T16:25:28;19.70;99.90
3300;DHT22;1662;49.310;8.134;2022-09-16T16:27:53;19.50;99.90
3300;DHT22;1662;49.310;8.134;2022-09-16T16:30:19;19.10;99.90
3300;DHT22;1662;49.310;8.134;2022-09-16T16:32:45;18.90;99.90
3300;DHT22;1662;49.310;8.134;2022-09-16T16:35:11;18.70;99.90
3300;DHT22;1662;49.310;8.134;2022-09-16T16:37:37;18.50;99.90
3300;DHT22;1662;49.310;8.134;2022-09-16T16:40:04;18.20;99.90
3300;DHT22;1662;49.310;8.134;2022-09-16T16:42:29;17.90;99.90
3300;DHT22;1662;49.310;8.134;2022-09-16T16:44:57;17.60;99.90
3300;DHT22;1662;49.310;8.134;2022-09-16T16:47:23;17.30;99.90
3300;DHT22;1662;49.310;8.134;2022-09-16T16:49:49;17.10;99.90
3300;DHT22;1662;49.310;8.134;2022-09-16T16:52:16;17.00;99.90
3300;DHT22;1662;49.310;8.134;2022-09-16T16:54:41;16.90;99.90
3300;DHT22;1662;49.310;8.134;2022-09-16T16:57:09;16.80;99.90
3300;DHT22;1662;49.310;8.134;2022-09-16T16:59:35;16.70;99.90
3300;DHT22;1662;49.310;8.134;2022-09-16T17:02:00;16.70;99.90
3300;DHT22;1662;49.310;8.134;2022-09-16T17:04:28;16.70;99.90
3300;DHT22;1662;49.310;8.134;2022-09-16T17:06:54;16.80;99.90
3300;DHT22;1662;49.310;8.134;2022-09-16T17:09:20;16.60;99.90
3300;DHT22;1662;49.310;8.134;2022-09-16T17:11:55;16.60;99.90
3300;DHT22;1662;49.310;8.134;2022-09-16T17:14:25;16.60;99.90
3300;DHT22;1662;49.310;8.134;2022-09-16T17:16:51;16.40;99.90
3300;DHT22;1662;49.310;8.134;2022-09-16T17:19:17;16.40;99.90
3300;DHT22;1662;49.310;8.134;2022-09-16T17:21:44;16.30;99.90
3300;DHT22;1662;49.310;8.134;2022-09-16T17:24:11;16.30;99.90
3300;DHT22;1662;49.310;8.134;2022-09-16T17:26:37;16.30;99.90
3300;DHT22;1662;49.310;8.134;2022-09-16T17:29:03;16.20;99.90
3300;DHT22;1662;49.310;8.134;2022-09-16T17:31:31;16.20;99.90
3300;DHT22;1662;49.310;8.134;2022-09-16T17:34:02;16.20;99.90
3300;DHT22;1662;49.310;8.134;2022-09-16T17:36:31;16.20;99.90
3300;DHT22;1662;49.310;8.134;2022-09-16T17:39:02;16.10;99.90
3300;DHT22;1662;49.310;8.134;2022-09-16T17:41:28;16.10;99.90
3300;DHT22;1662;49.310;8.134;2022-09-16T17:43:55;16.10;99.90
3300;DHT22;1662;49.310;8.134;2022-09-16T17:46:25;16.10;99.90
3300;DHT22;1662;49.310;8.134;2022-09-16T17:49:02;16.10;99.90
3300;DHT22;1662;49.310;8.134;2022-09-16T17:51:34;16.00;99.90
3300;DHT22;1662;49.310;8.134;2022-09-16T17:54:00;16.00;99.90
3300;DHT22;1662;49.310;8.134;2022-09-16T17:56:29;16.00;99.90
3300;DHT22;1662;49.310;8.134;2022-09-16T17:58:55;16.00;99.90
3300;DHT22;1662;49.310;8.134;2022-09-16T18:01:27;16.00;99.90
3300;DHT22;1662;49.310;8.134;2022-09-16T18:03:55;16.00;99.90
3300;DHT22;1662;49.310;8.134;2022-09-16T18:06:29;16.00;99.90
3300;DHT22;1662;49.310;8.134;2022-09-16T18:08:58;16.00;99.90
3300;DHT22;1662;49.310;8.134;2022-09-16T18:11:25;15.90;99.90
3300;DHT22;1662;49.310;8.134;2022-09-16T18:14:02;15.90;99.90
3300;DHT22;1662;49.310;8.134;2022-09-16T18:16:28;15.80;99.90
3300;DHT22;1662;49.310;8.134;2022-09-16T18:18:58;15.80;99.90
3300;DHT22;1662;49.310;8.134;2022-09-16T18:21:25;15.80;99.90
3300;DHT22;1662;49.310;8.134;2022-09-16T18:23:57;15.80;99.90
3300;DHT22;1662;49.310;8.134;2022-09-16T18:26:23;15.70;99.90
3300;DHT22;1662;49.310;8.134;2022-09-16T18:28:50;15.70;99.90
3300;DHT22;1662;49.310;8.134;2022-09-16T18:31:18;15.60;99.90
3300;DHT22;1662;49.310;8.134;2022-09-16T18:33:44;15.60;99.90
3300;DHT22;1662;49.310;8.134;2022-09-16T18:36:12;15.50;99.90
3300;DHT22;1662;49.310;8.134;2022-09-16T18:38:41;15.50;99.90
3300;DHT22;1662;49.310;8.134;2022-09-16T18:43:36;15.50;99.90
3300;DHT22;1662;49.310;8.134;2022-09-16T18:46:11;15.50;99.90
3300;DHT22;1662;49.310;8.134;2022-09-16T18:48:38;15.50;99.90
3300;DHT22;1662;49.310;8.134;2022-09-16T18:51:04;15.50;99.90
3300;DHT22;1662;49.310;8.134;2022-09-16T18:53:30;15.50;99.90
3300;DHT22;1662;49.310;8.134;2022-09-16T18:55:58;15.50;99.90
3300;DHT22;1662;49.310;8.134;2022-09-16T18:58:24;15.40;99.90
3300;DHT22;1662;49.310;8.134;2022-09-16T19:00:52;15.40;99.90
3300;DHT22;1662;49.310;8.134;2022-09-16T19:03:17;15.30;99.90
3300;DHT22;1662;49.310;8.134;2022-09-16T19:05:54;15.30;99.90
3300;DHT22;1662;49.310;8.134;2022-09-16T19:08:19;15.30;99.90
3300;DHT22;1662;49.310;8.134;2022-09-16T19:10:45;15.20;99.90
3300;DHT22;1662;49.310;8.134;2022-09-16T19:13:13;15.20;99.90
3300;DHT22;1662;49.310;8.134;2022-09-16T19:15:38;15.10;99.90
3300;DHT22;1662;49.310;8.134;2022-09-16T19:18:04;15.10;99.90
3300;DHT22;1662;49.310;8.134;2022-09-16T19:20:30;15.00;99.90
3300;DHT22;1662;49.310;8.134;2022-09-16T19:22:56;15.00;99.90
3300;DHT22;1662;49.310;8.134;2022-09-16T19:25:21;15.00;99.90
3300;DHT22;1662;49.310;8.134;2022-09-16T19:27:49;14.90;99.90
3300;DHT22;1662;49.310;8.134;2022-09-16T19:30:15;14.80;99.90
3300;DHT22;1662;49.310;8.134;2022-09-16T19:32:41;14.70;99.90
3300;DHT22;1662;49.310;8.134;2022-09-16T19:35:07;14.70;99.90